Time;durP1;ratioP1;P1;durP2;ratioP2;P2;SDS_P1;SDS_P2;PMS_P1;PMS_P2;Temp;Humidity;BMP_temperature;BMP_pressure;BME280_temperature;BME280_humidity;BME280_pressure;Samples;Min_cycle;Max_cycle;Signal;HPM_P1;HPM_P2
2022/05/27 00:03:22;;;;;;;29.75;9.95;;;;;;;13.53;100.00;101605.59;10303736;28;20395;-75
2022/05/27 00:08:23;;;;;;;38.75;9.45;;;;;;;13.51;100.00;101587.56;10304473;28;20549;-74
2022/05/27 00:13:23;;;;;;;24.38;8.65;;;;;;;13.51;100.00;101607.78;10304680;28;20121;-74
2022/05/27 00:18:24;;;;;;;25.52;8.65;;;;;;;13.52;100.00;101564.38;10303836;28;20038;-75
2022/05/27 00:23:25;;;;;;;30.13;9.43;;;;;;;13.49;100.00;101587.81;10286257;28;20510;-75
2022/05/27 00:28:25;;;;;;;33.25;10.23;;;;;;;13.36;100.00;101590.16;10286670;28;20054;-76
2022/05/27 00:33:26;;;;;;;30.23;6.78;;;;;;;13.26;100.00;101618.47;10285478;28;20094;-74
2022/05/27 00:38:26;;;;;;;24.55;6.13;;;;;;;13.14;100.00;101607.50;10301497;28;20042;-74
2022/05/27 00:43:27;;;;;;;27.08;5.72;;;;;;;13.11;100.00;101596.94;10302722;28;20093;-76
2022/05/27 00:48:27;;;;;;;20.85;6.10;;;;;;;13.06;100.00;101610.69;10285372;28;20094;-75
2022/05/27 00:53:43;;;;;;;26.42;6.80;;;;;;;12.97;100.00;101606.69;10302664;28;20050;-76
2022/05/27 00:58:50;;;;;;;17.40;5.40;;;;;;;12.82;100.00;101607.28;10285030;28;20117;-76
2022/05/27 01:03:50;;;;;;;42.17;5.82;;;;;;;12.69;100.00;101617.59;10284412;28;20047;-74
2022/05/27 01:08:50;;;;;;;23.17;5.18;;;;;;;12.62;100.00;101627.94;10252142;28;20043;-74
2022/05/27 01:13:51;;;;;;;20.33;4.20;;;;;;;12.51;100.00;101634.38;10301752;28;20380;-75
2022/05/27 01:25:03;;;;;;;23.95;4.60;;;;;;;12.32;100.00;101640.13;10299209;28;20043;-75
2022/05/27 01:30:34;;;;;;;18.40;3.45;;;;;;;12.22;100.00;101650.97;10175716;28;20052;-75
2022/05/27 01:35:41;;;;;;;21.20;4.30;;;;;;;12.20;100.00;101646.78;10280145;28;20106;-74
2022/05/27 01:40:49;;;;;;;17.58;3.85;;;;;;;12.18;100.00;101649.78;10297046;28;20049;-75
2022/05/27 01:45:59;;;;;;;18.73;3.97;;;;;;;12.20;100.00;101649.53;10276694;28;20125;-76
2022/05/27 01:51:08;;;;;;;17.77;4.25;;;;;;;12.18;100.00;101655.31;10262608;28;20039;-76
2022/05/27 01:56:14;;;;;;;16.98;3.83;;;;;;;12.15;100.00;101666.81;10296778;28;20043;-75
2022/05/27 02:01:17;;;;;;;19.15;3.15;;;;;;;12.14;100.00;101667.91;10262021;28;20039;-75
2022/05/27 02:06:25;;;;;;;21.10;4.15;;;;;;;12.13;100.00;101669.00;10261051;28;20042;-74
2022/05/27 02:11:25;;;;;;;24.35;4.22;;;;;;;12.08;100.00;101660.63;10276276;28;20062;-76
2022/05/27 02:16:37;;;;;;;14.93;3.70;;;;;;;11.93;100.00;101649.25;10295299;28;20035;-75
2022/05/27 02:22:00;;;;;;;15.48;3.60;;;;;;;11.82;100.00;101653.69;10260909;28;20086;-74
2022/05/27 02:27:03;;;;;;;17.10;3.13;;;;;;;11.66;100.00;101641.50;10280205;28;20073;-73
2022/05/27 02:32:08;;;;;;;25.20;5.22;;;;;;;11.61;100.00;101655.19;10277864;28;20038;-74
2022/05/27 02:37:28;;;;;;;18.75;4.57;;;;;;;11.49;100.00;101656.03;10277186;28;20032;-74
2022/05/27 02:42:51;;;;;;;20.00;3.72;;;;;;;11.51;100.00;101662.16;10235994;29;20185;-74
2022/05/27 02:48:03;;;;;;;20.13;3.63;;;;;;;11.42;100.00;101658.06;10240354;29;20055;-71
2022/05/27 02:53:15;;;;;;;15.02;3.25;;;;;;;11.25;100.00;101651.63;10236520;29;20043;-74
2022/05/27 02:58:16;;;;;;;12.95;2.75;;;;;;;11.10;100.00;101655.69;10254793;29;20526;-74
2022/05/27 03:03:17;;;;;;;11.05;1.92;;;;;;;11.01;100.00;101662.63;10253815;29;20055;-73
2022/05/27 03:08:19;;;;;;;13.13;2.47;;;;;;;10.97;100.00;101664.16;10251833;28;20079;-73
2022/05/27 03:13:50;;;;;;;20.00;2.92;;;;;;;10.88;100.00;101651.84;10254753;29;20045;-73
2022/05/27 03:19:26;;;;;;;11.63;2.50;;;;;;;10.68;100.00;101654.91;10254986;28;20058;-73
2022/05/27 03:24:43;;;;;;;14.10;2.63;;;;;;;10.62;100.00;101650.34;10231338;29;20237;-74
2022/05/27 03:29:49;;;;;;;13.70;2.72;;;;;;;10.52;100.00;101648.16;10260082;29;20066;-73
2022/05/27 03:34:57;;;;;;;15.90;2.85;;;;;;;10.46;100.00;101649.13;10244607;28;20039;-72
2022/05/27 03:40:08;;;;;;;16.85;3.17;;;;;;;10.35;100.00;101658.16;10299591;28;20074;-73
2022/05/27 03:45:14;;;;;;;10.93;2.70;;;;;;;10.33;100.00;101654.78;10300682;28;20484;-73
2022/05/27 03:50:20;;;;;;;14.32;3.50;;;;;;;10.30;100.00;101656.94;10266692;28;20062;-73
2022/05/27 03:55:22;;;;;;;15.77;3.90;;;;;;;10.36;100.00;101659.84;10283565;28;20082;-72
2022/05/27 04:00:23;;;;;;;15.35;3.03;;;;;;;10.51;100.00;101668.50;10300513;28;20275;-72
2022/05/27 04:05:23;;;;;;;20.77;3.38;;;;;;;10.62;100.00;101647.56;10298119;28;20514;-71
2022/05/27 04:10:24;;;;;;;13.68;2.97;;;;;;;10.69;100.00;101660.19;10281399;28;20101;-72
2022/05/27 04:15:24;;;;;;;18.02;4.63;;;;;;;10.73;100.00;101657.81;10299064;28;20031;-72
2022/05/27 04:20:25;;;;;;;23.27;3.88;;;;;;;10.79;100.00;101658.75;10298560;28;20041;-71
2022/05/27 04:25:26;;;;;;;16.63;3.03;;;;;;;10.82;100.00;101658.28;10299649;28;20043;-70
2022/05/27 04:30:26;;;;;;;16.83;3.13;;;;;;;10.86;100.00;101654.81;10297280;28;20039;-72
2022/05/27 04:35:27;;;;;;;19.92;3.10;;;;;;;10.93;100.00;101664.88;10296548;28;20442;-71
2022/05/27 04:40:27;;;;;;;14.75;2.80;;;;;;;11.04;100.00;101662.16;10245570;29;20039;-71
2022/05/27 04:45:28;;;;;;;14.82;2.95;;;;;;;11.17;100.00;101649.22;10255467;28;20047;-71
2022/05/27 04:50:29;;;;;;;21.70;3.42;;;;;;;11.37;100.00;101662.63;10224219;29;20582;-68
2022/05/27 04:55:30;;;;;;;19.67;4.28;;;;;;;11.43;100.00;101648.75;10258000;29;20126;-70
2022/05/27 05:00:33;;;;;;;20.98;3.22;;;;;;;11.63;100.00;101684.19;10243346;28;20042;-71
2022/05/27 05:05:34;;;;;;;17.50;2.35;;;;;;;11.72;100.00;101690.19;10260618;28;20070;-71
2022/05/27 05:10:35;;;;;;;8.88;2.47;;;;;;;11.77;100.00;101689.47;10239010;28;20120;-70
2022/05/27 05:15:35;;;;;;;15.82;2.42;;;;;;;11.79;100.00;101685.38;10296147;28;20082;-71
2022/05/27 05:20:36;;;;;;;12.07;2.33;;;;;;;11.73;100.00;101691.84;10262952;28;20039;-71
2022/05/27 05:25:36;;;;;;;14.10;3.13;;;;;;;11.76;100.00;101699.66;10279396;28;20034;-70
2022/05/27 05:30:37;;;;;;;13.75;3.00;;;;;;;11.74;100.00;101699.06;10296571;28;20057;-71
2022/05/27 05:35:37;;;;;;;15.38;2.92;;;;;;;11.76;100.00;101698.81;10295859;28;20353;-71
2022/05/27 05:40:38;;;;;;;12.43;3.25;;;;;;;11.72;100.00;101692.97;10275679;28;20045;-71
2022/05/27 05:45:39;;;;;;;9.90;2.20;;;;;;;11.71;100.00;101696.78;10276794;28;20062;-71
2022/05/27 05:50:40;;;;;;;15.93;3.83;;;;;;;11.81;100.00;101699.75;10276584;28;20046;-71
2022/05/27 05:55:40;;;;;;;16.02;3.72;;;;;;;12.00;100.00;101713.44;10279104;28;20049;-72
2022/05/27 06:00:41;;;;;;;13.88;2.17;;;;;;;12.04;100.00;101709.13;10295812;28;20035;-72
2022/05/27 06:05:42;;;;;;;12.18;2.60;;;;;;;12.13;100.00;101707.63;10277391;28;20042;-71
2022/05/27 06:10:43;;;;;;;11.20;2.42;;;;;;;12.48;100.00;101709.44;10294501;28;20034;-70
2022/05/27 06:15:43;;;;;;;14.20;2.38;;;;;;;12.82;100.00;101706.75;10282358;28;20043;-72
2022/05/27 06:20:44;;;;;;;19.98;2.67;;;;;;;12.87;100.00;101706.84;10294535;28;20039;-71
2022/05/27 06:25:44;;;;;;;15.57;2.85;;;;;;;12.90;100.00;101714.66;10295776;28;20039;-71
2022/05/27 06:36:04;;;;;;;14.68;2.55;;;;;;;13.11;100.00;101708.38;10280411;28;20114;-71
2022/05/27 06:41:04;;;;;;;13.88;3.22;;;;;;;13.07;100.00;101709.13;10263863;28;20043;-71
2022/05/27 06:46:05;;;;;;;8.52;2.05;;;;;;;13.20;100.00;101713.47;10271951;28;20043;-73
2022/05/27 06:51:06;;;;;;;14.50;3.55;;;;;;;13.12;100.00;101707.28;10271568;28;20402;-71
2022/05/27 06:56:07;;;;;;;12.27;2.78;;;;;;;13.20;100.00;101696.88;10261270;28;20486;-70
2022/05/27 07:01:10;;;;;;;13.73;2.47;;;;;;;13.38;100.00;101702.19;10276387;28;20043;-71
2022/05/27 07:06:11;;;;;;;14.10;2.50;;;;;;;13.39;100.00;101703.84;10244588;28;20124;-70
2022/05/27 07:11:11;;;;;;;13.50;2.13;;;;;;;13.48;100.00;101702.34;10270715;28;20163;-71
2022/05/27 07:16:12;;;;;;;11.02;2.28;;;;;;;13.71;100.00;101694.94;10280701;28;20042;-72
2022/05/27 07:21:13;;;;;;;12.40;2.33;;;;;;;13.61;100.00;101700.31;10279849;28;20063;-70
2022/05/27 07:26:13;;;;;;;10.70;2.03;;;;;;;14.03;100.00;101694.22;10281982;28;20030;-70
2022/05/27 07:31:14;;;;;;;20.63;3.08;;;;;;;13.95;92.27;101694.69;10280980;28;20034;-72
2022/05/27 07:36:14;;;;;;;9.50;2.65;;;;;;;13.87;91.82;101702.34;10261647;28;20495;-72
2022/05/27 07:41:15;;;;;;;13.20;2.28;;;;;;;13.39;93.76;101712.16;10261197;28;20035;-70
2022/05/27 07:46:16;;;;;;;14.10;2.90;;;;;;;13.29;89.72;101684.34;10276145;28;20063;-70
2022/05/27 07:51:16;;;;;;;9.95;2.42;;;;;;;13.57;88.46;101694.44;10262154;28;20039;-70
2022/05/27 07:56:17;;;;;;;8.50;1.80;;;;;;;13.74;87.61;101694.41;10277608;28;20027;-70
2022/05/27 08:01:17;;;;;;;16.10;3.05;;;;;;;13.92;90.87;101696.03;10262522;28;20039;-69
2022/05/27 08:06:17;;;;;;;15.57;3.28;;;;;;;14.13;87.36;101702.66;10274737;28;20039;-71
2022/05/27 08:11:18;;;;;;;10.00;2.75;;;;;;;14.35;88.29;101693.53;10260281;28;20043;-70
2022/05/27 08:16:18;;;;;;;17.08;3.78;;;;;;;14.36;87.09;101690.47;10258355;29;20383;-70
2022/05/27 08:21:19;;;;;;;12.88;2.35;;;;;;;13.90;85.27;101699.06;10259120;29;20455;-71
2022/05/27 08:26:19;;;;;;;10.27;2.33;;;;;;;14.10;84.86;101703.19;10261384;28;20498;-71
2022/05/27 08:31:21;;;;;;;10.10;2.05;;;;;;;14.65;83.05;101701.34;10265754;28;20467;-71
2022/05/27 08:42:04;;;;;;;14.27;2.20;;;;;;;14.61;82.10;101698.25;10291410;28;20031;-72
2022/05/27 08:47:41;;;;;;;12.13;1.80;;;;;;;14.68;79.56;101709.16;10291388;28;20043;-69
2022/05/27 08:52:47;;;;;;;14.00;2.38;;;;;;;14.65;81.15;101693.84;10278162;28;20047;-71
2022/05/27 09:03:07;;;;;;;17.73;2.60;;;;;;;14.50;85.89;101719.44;10281068;28;20038;-72
2022/05/27 09:08:18;;;;;;;12.90;2.65;;;;;;;15.14;81.69;101713.16;10278114;28;20121;-69
2022/05/27 09:13:21;;;;;;;7.60;1.50;;;;;;;15.70;79.45;101711.91;10268726;28;20091;-71
2022/05/27 09:18:37;;;;;;;12.95;2.38;;;;;;;15.79;78.21;101703.94;10253856;28;20039;-69
2022/05/27 09:24:06;;;;;;;11.82;2.72;;;;;;;14.75;82.58;101737.47;10278195;28;20050;-70
2022/05/27 09:29:22;;;;;;;9.70;2.15;;;;;;;15.22;83.13;101736.81;10295251;28;20046;-70
2022/05/27 09:34:24;;;;;;;11.05;2.00;;;;;;;15.67;79.02;101720.78;10297194;28;20093;-69
2022/05/27 09:39:25;;;;;;;14.82;2.53;;;;;;;15.43;80.33;101742.53;10269838;28;20522;-70
2022/05/27 09:44:53;;;;;;;8.32;2.00;;;;;;;15.48;82.50;101751.75;10258575;28;20063;-70
2022/05/27 09:50:01;;;;;;;8.85;1.80;;;;;;;15.29;76.78;101731.03;10237496;29;20043;-70
2022/05/27 09:55:21;;;;;;;9.00;2.28;;;;;;;15.53;82.32;101748.16;10237315;29;20042;-70
2022/05/27 10:00:39;;;;;;;10.82;2.08;;;;;;;15.57;78.60;101740.13;10222892;29;20031;-70
2022/05/27 10:05:39;;;;;;;10.43;1.50;;;;;;;15.56;78.78;101741.22;10254990;29;20062;-71
2022/05/27 10:10:42;;;;;;;10.27;1.80;;;;;;;15.70;76.63;101728.56;10286752;28;20070;-71
2022/05/27 10:15:43;;;;;;;12.65;1.77;;;;;;;16.18;73.82;101732.16;10293977;28;20098;-71
2022/05/27 10:20:46;;;;;;;8.25;2.10;;;;;;;15.66;77.27;101746.84;10294764;28;20043;-71
2022/05/27 10:25:47;;;;;;;9.20;2.17;;;;;;;16.07;75.14;101736.84;10278773;28;20038;-71
2022/05/27 10:30:54;;;;;;;8.02;2.00;;;;;;;16.39;74.48;101748.91;10298921;28;20109;-71
2022/05/27 10:35:55;;;;;;;15.25;2.28;;;;;;;15.07;76.95;101768.03;10303356;28;20034;-70
2022/05/27 10:41:07;;;;;;;7.88;1.83;;;;;;;14.90;78.15;101778.38;10301566;28;20031;-68
2022/05/27 10:46:07;;;;;;;14.98;3.00;;;;;;;15.24;77.31;101773.44;10269976;28;20066;-69
2022/05/27 10:51:34;;;;;;;10.43;2.15;;;;;;;15.26;80.41;101781.50;10251614;28;20035;-68
2022/05/27 11:02:43;;;;;;;11.63;2.35;;;;;;;14.82;81.62;101793.56;10299447;28;20107;-69
2022/05/27 11:07:57;;;;;;;17.13;2.83;;;;;;;15.44;81.48;101777.47;10283026;28;20049;-69
2022/05/27 11:18:49;;;;;;;12.88;2.30;;;;;;;14.85;84.12;101806.06;10250934;28;20058;-68
2022/05/27 11:24:09;;;;;;;11.35;2.25;;;;;;;14.96;82.64;101793.97;10285440;28;20407;-69
2022/05/27 11:29:34;;;;;;;14.38;2.88;;;;;;;15.26;81.65;101789.84;10283780;28;20107;-68
2022/05/27 11:34:51;;;;;;;16.40;2.45;;;;;;;15.31;81.78;101801.78;10279580;28;20058;-69
2022/05/27 11:40:13;;;;;;;9.45;2.83;;;;;;;15.67;79.55;101791.00;10250255;28;20111;-69
2022/05/27 11:45:38;;;;;;;12.93;2.40;;;;;;;15.50;78.68;101799.50;10279924;28;20047;-70
2022/05/27 11:51:02;;;;;;;12.55;2.40;;;;;;;15.67;80.84;101802.09;10244545;28;20039;-68
2022/05/27 11:56:14;;;;;;;13.52;2.35;;;;;;;15.74;79.72;101796.34;10242654;29;20042;-70
2022/05/27 12:01:32;;;;;;;11.88;2.63;;;;;;;15.01;76.96;101805.13;10253060;28;20126;-70
2022/05/27 12:06:39;;;;;;;13.38;2.65;;;;;;;15.29;78.72;101808.72;10280945;28;20047;-68
2022/05/27 12:11:43;;;;;;;13.93;2.72;;;;;;;15.53;78.66;101804.50;10297813;28;20118;-69
2022/05/27 12:16:48;;;;;;;11.98;3.75;;;;;;;15.70;80.42;101820.16;10265813;28;20039;-69
2022/05/27 12:22:07;;;;;;;9.13;2.55;;;;;;;15.58;79.81;101819.50;10265771;28;20038;-69
2022/05/27 12:27:07;;;;;;;14.65;2.70;;;;;;;15.28;81.68;101820.94;10281891;28;20047;-70
2022/05/27 12:32:08;;;;;;;13.73;2.70;;;;;;;15.26;81.01;101825.91;10297338;28;20042;-69
2022/05/27 12:37:11;;;;;;;8.57;2.10;;;;;;;14.72;79.72;101810.91;10267470;28;20077;-72
2022/05/27 12:42:25;;;;;;;9.48;2.10;;;;;;;14.78;79.61;101814.59;10265068;28;20035;-71
2022/05/27 12:47:29;;;;;;;13.82;1.92;;;;;;;15.74;76.82;101799.13;10262175;28;20053;-69
2022/05/27 12:52:30;;;;;;;13.13;2.67;;;;;;;15.44;78.66;101814.41;10282154;28;20080;-68
2022/05/27 13:03:49;;;;;;;15.07;2.50;;;;;;;15.84;79.94;101815.88;10284861;28;20046;-70
2022/05/27 13:08:52;;;;;;;18.48;2.42;;;;;;;16.55;76.21;101820.16;10297225;28;20038;-72
2022/05/27 13:14:04;;;;;;;14.68;2.33;;;;;;;16.57;78.45;101829.03;10296355;28;20050;-70
2022/05/27 13:19:06;;;;;;;17.02;3.13;;;;;;;16.73;74.66;101800.19;10296304;28;20041;-69
2022/05/27 13:24:12;;;;;;;13.30;3.17;;;;;;;16.40;77.94;101828.44;10277531;28;20042;-70
2022/05/27 13:29:26;;;;;;;16.90;3.03;;;;;;;15.46;78.55;101830.78;10294158;28;20059;-72
2022/05/27 13:34:44;;;;;;;14.45;2.70;;;;;;;15.81;78.31;101824.72;10288133;28;20109;-70
2022/05/27 13:39:54;;;;;;;15.98;2.78;;;;;;;15.47;78.46;101829.69;10254151;28;20070;-72
2022/05/27 13:44:56;;;;;;;10.15;2.35;;;;;;;16.21;77.51;101820.53;10230067;28;20047;-70
2022/05/27 13:49:56;;;;;;;8.15;2.05;;;;;;;16.38;76.68;101827.84;10257840;28;20045;-70
2022/05/27 13:55:05;;;;;;;12.27;2.50;;;;;;;15.72;79.57;101840.19;10255759;28;20107;-69
2022/05/27 14:00:07;;;;;;;11.15;2.45;;;;;;;15.41;80.58;101842.69;10274896;28;20070;-70
2022/05/27 14:05:17;;;;;;;16.08;2.67;;;;;;;15.18;80.09;101843.03;10242627;28;20046;-69
2022/05/27 14:10:24;;;;;;;10.52;1.67;;;;;;;15.22;80.65;101838.63;10256692;28;20130;-68
2022/05/27 14:15:28;;;;;;;11.10;2.40;;;;;;;15.56;79.85;101833.66;10284337;28;20086;-68
2022/05/27 14:26:01;;;;;;;14.85;2.33;;;;;;;16.25;76.30;101832.78;10241017;28;20048;-68
2022/05/27 14:31:09;;;;;;;11.15;1.90;;;;;;;15.43;77.92;101848.81;10236685;28;20039;-69
2022/05/27 14:36:09;;;;;;;16.23;3.72;;;;;;;15.13;79.47;101850.19;10278253;28;20058;-71
2022/05/27 14:41:14;;;;;;;9.02;2.17;;;;;;;14.75;80.69;101859.44;10237854;29;20054;-69
2022/05/27 14:46:17;;;;;;;9.50;2.42;;;;;;;14.70;82.74;101863.00;10237731;29;20036;-69
2022/05/27 14:51:23;;;;;;;13.20;2.67;;;;;;;16.06;78.31;101823.22;10257548;28;20042;-70
2022/05/27 14:56:25;;;;;;;12.00;2.73;;;;;;;17.97;72.18;101812.31;10275337;28;20123;-68
2022/05/27 15:01:36;;;;;;;14.65;2.42;;;;;;;17.41;69.56;101804.81;10275659;28;20435;-71
2022/05/27 15:06:37;;;;;;;8.85;1.92;;;;;;;17.91;69.95;101824.56;10292297;28;20066;-70
2022/05/27 15:11:37;;;;;;;8.88;1.75;;;;;;;17.34;71.04;101820.94;10314387;28;20046;-69
2022/05/27 15:16:38;;;;;;;11.02;2.08;;;;;;;16.13;74.45;101840.50;10319936;28;20486;-69
2022/05/27 15:21:41;;;;;;;9.40;2.33;;;;;;;16.54;75.37;101833.22;10341688;28;20039;-69
2022/05/27 15:37:27;;;;;;;12.43;3.03;;;;;;;15.04;76.29;101832.31;10323058;28;20038;-71
2022/05/27 15:42:28;;;;;;;7.97;2.13;;;;;;;14.96;78.89;101843.88;10307139;28;20418;-63
2022/05/27 15:47:29;;;;;;;11.52;1.70;;;;;;;14.56;79.60;101856.16;10334456;28;20050;-65
2022/05/27 15:52:29;;;;;;;14.10;2.00;;;;;;;14.57;78.77;101848.69;10308235;28;20077;-67
2022/05/27 15:57:30;;;;;;;10.57;2.10;;;;;;;14.33;77.14;101846.97;10299467;28;20047;-68
2022/05/27 16:02:31;;;;;;;9.57;1.85;;;;;;;14.11;79.12;101848.84;10280792;28;20045;-67
2022/05/27 16:07:31;;;;;;;7.20;1.70;;;;;;;13.97;78.82;101848.34;10297567;28;20435;-67
2022/05/27 16:12:32;;;;;;;11.82;1.75;;;;;;;14.05;78.79;101834.09;10298667;28;20047;-69
2022/05/27 16:22:51;;;;;;;9.85;2.45;;;;;;;15.39;76.19;101842.09;10286696;28;20098;-68
2022/05/27 16:27:55;;;;;;;10.60;1.45;;;;;;;16.13;75.18;101841.31;10297691;28;20039;-68
2022/05/27 16:32:56;;;;;;;10.35;1.95;;;;;;;15.03;77.78;101846.47;10281160;28;20065;-69
2022/05/27 16:37:57;;;;;;;15.52;2.67;;;;;;;14.58;81.14;101853.97;10297052;28;20133;-67
2022/05/27 16:42:57;;;;;;;14.75;1.85;;;;;;;14.15;82.71;101872.16;10280498;28;20102;-68
2022/05/27 16:47:58;;;;;;;9.60;1.60;;;;;;;13.88;84.69;101878.41;10297435;28;20038;-69
2022/05/27 16:52:58;;;;;;;14.75;2.38;;;;;;;13.75;86.26;101886.22;10297258;28;20035;-66
2022/05/27 16:58:00;;;;;;;13.75;2.20;;;;;;;13.60;84.99;101875.69;10274886;28;20053;-70
2022/05/27 17:03:00;;;;;;;9.88;1.50;;;;;;;13.32;86.37;101871.91;10265859;28;20035;-69
2022/05/27 17:08:01;;;;;;;7.93;2.17;;;;;;;13.40;87.65;101876.19;10256707;29;20050;-68
2022/05/27 17:13:01;;;;;;;15.05;2.28;;;;;;;13.34;89.39;101880.78;10256748;29;20507;-67
2022/05/27 17:18:03;;;;;;;13.25;2.25;;;;;;;13.29;91.23;101886.22;10256545;29;20035;-68
2022/05/27 17:23:03;;;;;;;14.02;3.15;;;;;;;13.42;92.01;101885.91;10256292;29;20485;-67
2022/05/27 17:28:04;;;;;;;19.20;3.63;;;;;;;13.49;91.50;101869.16;10278138;28;20054;-67
2022/05/27 17:33:04;;;;;;;11.95;2.33;;;;;;;13.50;89.63;101876.38;10293402;28;20043;-67
2022/05/27 17:38:08;;;;;;;19.80;3.15;;;;;;;13.24;93.22;101858.44;10246665;28;20111;-70
2022/05/27 17:43:09;;;;;;;14.45;2.58;;;;;;;13.19;94.00;101881.31;10239334;29;20130;-69
2022/05/27 17:53:29;;;;;;;13.85;2.42;;;;;;;13.22;96.49;101875.28;10301737;28;20058;-70
2022/05/27 17:58:30;;;;;;;13.52;1.98;;;;;;;13.06;99.56;101878.84;10316207;28;20047;-69
2022/05/27 18:03:30;;;;;;;10.82;2.45;;;;;;;12.98;100.00;101880.09;10301105;28;20043;-70
2022/05/27 18:08:31;;;;;;;16.70;2.33;;;;;;;13.00;100.00;101877.06;10335771;28;20049;-68
2022/05/27 18:13:34;;;;;;;20.20;3.22;;;;;;;12.92;100.00;101881.91;10316187;28;20050;-69
2022/05/27 18:18:34;;;;;;;8.20;1.90;;;;;;;12.86;100.00;101880.13;10333599;28;20038;-69
2022/05/27 18:23:35;;;;;;;9.70;1.80;;;;;;;12.94;100.00;101873.38;10332901;28;20553;-70
2022/05/27 18:28:35;;;;;;;13.93;2.10;;;;;;;12.80;100.00;101888.56;10318245;28;20042;-68
2022/05/27 18:33:35;;;;;;;11.57;1.85;;;;;;;12.82;100.00;101878.09;10330287;28;20046;-68
2022/05/27 18:38:36;;;;;;;9.95;2.03;;;;;;;12.78;100.00;101880.50;10312734;28;20044;-68
2022/05/27 18:43:36;;;;;;;8.13;2.10;;;;;;;12.71;100.00;101875.13;10304838;28;20089;-68
2022/05/27 18:48:38;;;;;;;9.35;2.17;;;;;;;12.52;100.00;101865.28;10323558;28;20042;-69
2022/05/27 18:53:42;;;;;;;13.98;2.28;;;;;;;12.39;100.00;101882.13;10304709;28;20035;-68
2022/05/27 18:58:42;;;;;;;13.90;1.80;;;;;;;12.30;100.00;101879.75;10301061;28;20050;-68
2022/05/27 19:03:43;;;;;;;15.15;2.15;;;;;;;12.27;100.00;101877.44;10301940;28;20046;-68
2022/05/27 19:08:44;;;;;;;13.73;1.95;;;;;;;12.16;100.00;101861.75;10300699;28;20526;-70
2022/05/27 19:13:44;;;;;;;20.77;3.58;;;;;;;12.07;100.00;101874.22;10300992;28;20039;-68
2022/05/27 19:24:04;;;;;;;20.17;2.15;;;;;;;12.04;100.00;101874.72;10301170;28;20103;-70
2022/05/27 19:29:05;;;;;;;13.60;2.25;;;;;;;12.01;100.00;101881.56;10281224;28;20047;-69
2022/05/27 19:34:05;;;;;;;11.93;2.20;;;;;;;11.96;100.00;101877.81;10300608;28;20086;-69
2022/05/27 19:39:06;;;;;;;20.33;3.20;;;;;;;11.83;100.00;101881.63;10300064;28;20046;-69
2022/05/27 19:44:06;;;;;;;13.43;2.25;;;;;;;11.85;100.00;101874.78;10300296;28;20034;-69
2022/05/27 19:49:07;;;;;;;19.60;2.40;;;;;;;11.90;100.00;101863.88;10299563;28;20039;-69
2022/05/27 19:54:07;;;;;;;15.95;2.28;;;;;;;11.81;100.00;101873.59;10299809;28;20503;-69
2022/05/27 20:09:46;;;;;;;16.05;2.08;;;;;;;11.64;100.00;101876.19;10298603;28;20039;-68
2022/05/27 20:14:47;;;;;;;16.60;2.35;;;;;;;11.63;100.00;101873.66;10282670;28;20072;-69
2022/05/27 20:19:48;;;;;;;15.43;2.45;;;;;;;11.57;100.00;101877.38;10313527;28;20705;-69
2022/05/27 20:24:49;;;;;;;10.75;2.40;;;;;;;11.59;100.00;101872.47;10309502;28;20035;-69
2022/05/27 20:29:50;;;;;;;14.38;3.30;;;;;;;11.55;100.00;101877.59;10305244;28;20117;-69
2022/05/27 20:34:51;;;;;;;11.05;1.98;;;;;;;11.42;100.00;101883.34;10304839;28;20436;-68
2022/05/27 20:39:51;;;;;;;9.85;2.38;;;;;;;11.18;100.00;101880.47;10321139;28;20039;-68
2022/05/27 20:44:53;;;;;;;17.75;2.78;;;;;;;10.93;100.00;101869.59;10330540;28;20038;-69
2022/05/27 20:49:53;;;;;;;17.60;2.25;;;;;;;11.10;100.00;101875.31;10294807;28;20502;-70
2022/05/27 20:54:54;;;;;;;11.25;2.22;;;;;;;10.88;100.00;101836.41;10315454;28;20034;-69
2022/05/27 20:59:54;;;;;;;14.18;1.90;;;;;;;11.15;100.00;101869.09;10323150;28;20462;-70
2022/05/27 21:04:54;;;;;;;9.23;1.85;;;;;;;11.16;100.00;101868.03;10307656;28;20046;-69
2022/05/27 21:09:55;;;;;;;13.70;2.47;;;;;;;11.17;100.00;101865.03;10319464;28;20046;-66
2022/05/27 21:14:56;;;;;;;14.30;2.17;;;;;;;11.16;100.00;101857.81;10316351;28;20163;-68
2022/05/27 21:19:57;;;;;;;10.00;2.15;;;;;;;11.18;100.00;101854.84;10293456;28;20122;-69
2022/05/27 21:24:57;;;;;;;16.30;1.83;;;;;;;11.06;100.00;101852.06;10296031;28;20045;-69
2022/05/27 21:29:59;;;;;;;13.52;2.83;;;;;;;11.05;100.00;101848.44;10296621;28;20046;-71
2022/05/27 21:34:59;;;;;;;17.33;4.43;;;;;;;10.77;100.00;101856.47;10278122;28;20035;-73
2022/05/27 21:40:00;;;;;;;17.50;2.40;;;;;;;10.50;100.00;101849.38;10270957;28;20039;-72
2022/05/27 21:45:00;;;;;;;19.13;2.95;;;;;;;10.21;100.00;101844.59;10255666;29;20158;-73
2022/05/27 21:50:01;;;;;;;17.65;2.90;;;;;;;10.02;100.00;101847.31;10255028;29;20039;-74
2022/05/27 21:55:01;;;;;;;13.68;1.98;;;;;;;9.93;100.00;101847.84;10237544;29;20099;-73
2022/05/27 22:00:07;;;;;;;13.82;2.28;;;;;;;9.97;100.00;101849.09;10255350;29;20340;-74
2022/05/27 22:05:08;;;;;;;17.08;3.03;;;;;;;10.05;100.00;101851.56;10238624;29;20031;-73
2022/05/27 22:15:28;;;;;;;14.23;2.20;;;;;;;10.08;100.00;101845.56;10255134;29;20118;-72
2022/05/27 22:20:28;;;;;;;17.17;2.75;;;;;;;10.12;100.00;101840.47;10255107;29;20396;-74
2022/05/27 22:25:29;;;;;;;14.70;2.90;;;;;;;10.12;100.00;101830.28;10259850;28;20499;-72
2022/05/27 22:30:29;;;;;;;10.65;3.97;;;;;;;10.12;100.00;101823.97;10263326;29;20406;-74
2022/05/27 22:35:30;;;;;;;12.50;2.30;;;;;;;10.11;100.00;101817.63;10263208;29;20035;-73
2022/05/27 22:40:30;;;;;;;19.30;3.03;;;;;;;10.12;100.00;101811.03;10262861;29;20053;-73
2022/05/27 22:45:31;;;;;;;18.40;2.60;;;;;;;10.09;100.00;101804.09;10245508;29;20067;-73
2022/05/27 22:50:31;;;;;;;18.85;2.63;;;;;;;9.77;100.00;101745.59;10292185;28;20050;-73
2022/05/27 22:55:33;;;;;;;16.33;2.65;;;;;;;9.91;100.00;101790.31;10302680;28;20037;-73
2022/05/27 23:00:34;;;;;;;16.92;2.90;;;;;;;9.86;100.00;101793.75;10285328;28;20043;-73
2022/05/27 23:05:34;;;;;;;19.63;2.92;;;;;;;9.88;100.00;101802.63;10301347;28;20047;-72
2022/05/27 23:10:34;;;;;;;10.50;1.98;;;;;;;9.96;100.00;101792.38;10299380;28;20043;-73
2022/05/27 23:20:56;;;;;;;8.10;2.15;;;;;;;9.94;100.00;101786.25;10322134;28;20039;-73
2022/05/27 23:25:59;;;;;;;11.18;2.30;;;;;;;9.88;100.00;101780.63;10312794;28;20039;-72
2022/05/27 23:30:59;;;;;;;14.65;1.95;;;;;;;9.88;100.00;101782.50;10314540;28;20046;-70
2022/05/27 23:36:00;;;;;;;8.63;1.98;;;;;;;9.75;100.00;101768.91;10300420;28;20030;-72
2022/05/27 23:41:07;;;;;;;10.95;1.92;;;;;;;9.70;100.00;101766.84;10299497;28;20039;-72
2022/05/27 23:46:09;;;;;;;13.57;2.63;;;;;;;9.63;100.00;101786.16;10282032;28;20054;-73
2022/05/27 23:51:12;;;;;;;9.07;1.67;;;;;;;9.56;100.00;101781.78;10249722;28;20042;-72
2022/05/27 23:56:14;;;;;;;13.15;1.73;;;;;;;9.49;100.00;101781.84;10300195;28;20038;-73
